FLIGHT INFORMATION
SAS Scandinavian Airlines

SAS1045

At Arrival Gate

ESNQ
 ESSA
DATE: 2020-01-24
GATE:  -
GATE DEPARTURE: 10:39
TAKEOFF: 10:55
DATE: 2020-01-24
GATE: 34
LANDING: 12:17
GATE ARRIVAL: 12:24
FLIGHT DATA
Crew: MATS JOHANSSON
Speed: 440 kts Altitude: 39000 ft
Stage Length: 495 nm
Route: 
Block Time: 1.8 Flight Time: 1.4
Fuel Used: 7391 LB
TRACK DATA
50000 FT1000 KTAltitudeSpeed
AIRCRAFT INFORMATION
Aircraft Type: B738
Registration: LN-RCN
SELCAL:  MSN/LN: 28318 / 529
Operator: SAS SCANDINAVIAN AIRLINES
Flights: 10 Block Time: 16.6 Flight Time: 13.7
Fuel Used: 87540 LB
  • DEPARTURE INFORMATION
    Date: 2020-01-24
    Airport: ESNQ
    Gate:  -
    Gate Departure: 10:39
    Takeoff: 10:55
    ARRIVAL INFORMATION
    Date: 2020-01-24
    Airport: ESSA
    Gate: 34
    Landing: 12:17
    Gate Arrival: 12:24
  • FLIGHT DATA
    Crew: MATS JOHANSSON
    Speed: 440 kts Altitude: 39000 ft
    Stage Length: 267 nm
    Route: 
    Block Time: 1.8 Flight Time: 1.4
    Fuel Used: 7391 LB
  • AIRCRAFT INFORMATION
    Aircraft Type: B738
    Registration: LN-RCN
    SELCAL:  MSN/LN: 28318 / 529
    Operator: SAS Scandinavian Airlines
    Flights: 10 Block Time: 16.6 Flight Time: 13.7
    Fuel Used: 87540 LB

DATALINK LOG | Newest first | Current as of: 2020-08-09 16:31:21
LABEL SEQUENCE CONTENT Dn/Up
QD240312:24 3.7▼ Dn
QC184812:17▼ Dn
GA3559GATE 34▲ Up
GR3155ESSA --:-- HI-VAL NO DIPL/VIP NO▼ Dn
2U0630ESSA 241050Z 26013KT CAVOK 06/02 Q1003 R01L/19//95 R08/19//95 R01R/19//95 NOSIG▲ Up
2S0145ESSA▼ Dn
2U0529ESSA 241050Z 26013KT CAVOK 06/02 Q1003 R01L/19//95 R08/19//95 R01R/19//95 NOSIG▲ Up
2S0040ESSA▼ Dn
QB565110:55▼ Dn
QA403510:39 11.5▼ Dn
A32936CLEARED TO ESSA VIA VAGA4C VAGAS T317 OSK T318 SIPRI N5 HMR HMR4P. SQUAWK 4144.▲ Up
B32720ESNQ ESSA 10045 SAS C ▼ Dn
A32844CLEARED TO ESSA VIA VAGA4C VAGAS T317 OSK T318 SIPRI N5 HMR HMR4P. SQUAWK 2603.▲ Up
B32720ESNQ ESSA 10045 SAS C ▼ Dn
2U2533ESNQ 241020Z AUTO 20008KT 9999 NCD M07/M11 Q0983▲ Up
2S2532ESNQ▼ Dn
Q02432[LINK ACK]▲ Up
Q02434[LINK TEST]▼ Dn


AIRCRAFT HISTORY
FLIGHT DATE FLIGHT NO. ORIGIN DESTINATION ROUTE BLOCK TIME FLIGHT TIME FUEL USED (LB) PILOT
2020-08-07SAS25ESNQ ESNU ESNQ TERPA KETEL ESNU10.86146Mats Johansson
2020-07-30SAS1044ESSA ESNQ ESSA SA551 SA564 SA709 SA710 SA855 LUMAX RESNA OSK RASEN REKMI OSKIR ITVAV VAGAS NQ704 NQ703 RW031.81.49293Mats Johansson
2020-06-27SAS414EKCH ESSA EKCH KEMAX NEXIL ROXEN DEKIK VEPIP BEDOS NEFYN MIKNA PELUP NILUG ESSA1.316605Mats Johansson
2020-02-20SAS1407ESSA EKCH 1.517235Mats Johansson
2020-01-24SAS1045ESNQ ESSA 1.81.47391Mats Johansson
2019-12-07SAS1207ENGM ESNQ 1.71.59123Douglas Morlan
2019-11-14SAS4431ENTC ENGM 2.5212569Kyle Rodgers
2019-11-14SAS4425ENSB ENTC 1.71.49089Kyle Rodgers
2019-11-14SAS4414ENTC ENSB 1.71.59499Kyle Rodgers
2019-11-14SAS4406ENGM ENTC 21.610589Kyle Rodgers